Huvudsida
METAR-TAF:

METAR-TAF

Flygplatser :

Honiara, Guadalcanal, Salomonöarna

Honiara International Airport

latitud: 09-25S, longitud: 160-03E, höjd: 8 m

Aktuellt väderrapport

Denna rapport gjordes för 7 minuter sedan, klockan 18:00 UTC
Stilla vind
Temperatur 22°C
Fuktighet 94%
Tryck 1006 hPa
Sikt 10 km eller mer
Få moln på en höjd av 1400 ft
Spridda moln på en höjd av 30000 ft
torrdis

METAR: AGGH 191800Z 00000KT 9999 HZ FEW014 SCT300 22/21 Q1006

Tid: 05:07 (18:07 UTC)

Väderprognos

Denna rapport gjordes för 1 timme och 37 minuter sedan, klockan 16:30 UTC
Prognos gäller från 19 kl. 18 UTC till 20 kl. 18 UTC
Vind 3 kt varierande vindriktning
Sikt 10 km eller mer
Få moln på en höjd av 1700 ft
Från 19 kl. 2200 UTC
Vind 10 kt från nordväst
Sikt: 1005 m
Spridda moln på en höjd av 1900 ft

TAF: AGGH 191630Z 1918/2018 VRB03KT 9999 FEW017 FM192200 32010KT 9999 SCT019 T 23 27 31 32 Q 1005 1007 1007 1005

Aktuella väderrapporter och prognoser från 4000 flygplatser (METAR- och TAF-rapporter).

De tillgängliga stationerna syns som gula och röda prickar på kartan.

För musen över prickarna för att se namnen på stationerna.

Klicka sedan för att få väderrapporter och prognoser.

För att ändra kartan: Klicka på de gröna knapparna med ett svart kors på för att zooma in; den gröna knappen med ett streck på för att zooma ut; eller på de gröna pilarna för angränsande kartor.


METAR-TAF: